createdAt,value
2022-09-02T00:00:04.066Z,12.81
2022-09-02T00:01:04.076Z,12.75
2022-09-02T00:02:04.106Z,12.81
2022-09-02T00:03:04.051Z,12.75
2022-09-02T00:04:04.085Z,12.75
2022-09-02T00:05:04.106Z,12.81
2022-09-02T00:06:04.150Z,12.75
2022-09-02T00:07:04.139Z,12.75
2022-09-02T00:08:04.206Z,12.75
2022-09-02T00:09:04.143Z,12.75
2022-09-02T00:10:04.396Z,12.75
2022-09-02T00:11:04.411Z,12.75
2022-09-02T00:12:04.388Z,12.75
2022-09-02T00:13:04.383Z,12.75
2022-09-02T00:14:04.386Z,12.75
2022-09-02T00:15:04.487Z,12.75
2022-09-02T00:16:04.498Z,12.75
2022-09-02T00:17:04.458Z,12.75
2022-09-02T00:18:03.510Z,12.75
2022-09-02T00:19:03.507Z,12.75
2022-09-02T00:20:03.584Z,12.75
2022-09-02T00:21:03.666Z,12.75
2022-09-02T00:22:03.673Z,12.75
2022-09-02T00:23:03.659Z,12.75
2022-09-02T00:24:03.745Z,12.75
2022-09-02T00:25:03.663Z,12.75
2022-09-02T00:26:03.827Z,12.75
2022-09-02T00:27:03.916Z,12.75
2022-09-02T00:28:03.894Z,12.81
2022-09-02T00:29:03.909Z,12.75
2022-09-02T00:30:03.601Z,12.81
2022-09-02T00:31:03.660Z,12.75
2022-09-02T00:32:03.844Z,12.81
2022-09-02T00:33:03.822Z,12.75
2022-09-02T00:34:03.819Z,12.81
2022-09-02T00:35:03.910Z,12.81
2022-09-02T00:36:03.906Z,12.81
2022-09-02T00:37:03.815Z,12.75
2022-09-02T00:38:03.908Z,12.75
2022-09-02T00:39:03.826Z,12.81
2022-09-02T00:40:04.166Z,12.75
2022-09-02T00:41:04.230Z,12.75
2022-09-02T00:42:04.226Z,12.75
2022-09-02T00:43:04.386Z,12.75
2022-09-02T00:44:04.302Z,12.75
2022-09-02T00:45:04.305Z,12.75
2022-09-02T00:46:04.405Z,12.75
2022-09-02T00:47:04.408Z,12.75
2022-09-02T00:48:04.382Z,12.69
2022-09-02T00:49:04.466Z,12.69
2022-09-02T00:50:04.488Z,12.69
2022-09-02T00:51:03.520Z,12.69
2022-09-02T00:52:03.444Z,12.69
2022-09-02T00:53:03.585Z,12.69
2022-09-02T00:54:03.673Z,12.69
2022-09-02T00:55:03.630Z,12.62
2022-09-02T00:56:03.586Z,12.62
2022-09-02T00:57:03.603Z,12.62
2022-09-02T00:58:03.671Z,12.62
2022-09-02T00:59:03.677Z,12.62
2022-09-02T01:00:03.676Z,12.62
2022-09-02T01:01:03.828Z,12.56
2022-09-02T01:02:04.172Z,12.56
2022-09-02T01:03:03.990Z,12.56
2022-09-02T01:04:04.067Z,12.56
2022-09-02T01:05:04.108Z,12.56
2022-09-02T01:06:04.166Z,12.56
2022-09-02T01:07:04.225Z,12.56
2022-09-02T01:08:04.314Z,12.56
2022-09-02T01:09:04.331Z,12.50
2022-09-02T01:10:04.401Z,12.50
2022-09-02T01:11:04.746Z,12.44
2022-09-02T01:12:04.462Z,12.44
2022-09-02T01:13:03.499Z,12.44
2022-09-02T01:14:03.585Z,12.38
2022-09-02T01:15:03.518Z,12.38
2022-09-02T01:16:03.523Z,12.38
2022-09-02T01:17:03.666Z,12.38
2022-09-02T01:18:03.669Z,12.38
2022-09-02T01:19:03.692Z,12.31
2022-09-02T01:20:03.674Z,12.31
2022-09-02T01:21:03.757Z,12.31
2022-09-02T01:22:03.753Z,12.31
2022-09-02T01:23:03.746Z,12.31
2022-09-02T01:24:03.743Z,12.25
2022-09-02T01:25:03.665Z,12.25
2022-09-02T01:26:03.660Z,12.31
2022-09-02T01:27:03.747Z,12.31
2022-09-02T01:28:03.751Z,12.25
2022-09-02T01:29:03.840Z,12.25
2022-09-02T01:30:03.834Z,12.25
2022-09-02T01:31:03.926Z,12.25
2022-09-02T01:32:03.830Z,12.25
2022-09-02T01:33:03.911Z,12.25
2022-09-02T01:34:03.906Z,12.25
2022-09-02T01:35:03.914Z,12.25
2022-09-02T01:36:03.988Z,12.25
2022-09-02T01:37:03.928Z,12.25
2022-09-02T01:38:03.907Z,12.25
2022-09-02T01:39:04.093Z,12.25
2022-09-02T01:40:04.029Z,12.25
2022-09-02T01:41:04.461Z,12.25
2022-09-02T01:42:04.383Z,12.31
2022-09-02T01:43:04.489Z,12.31
2022-09-02T01:44:03.920Z,12.31
2022-09-02T01:45:03.990Z,12.31
2022-09-02T01:46:03.986Z,12.31
2022-09-02T01:47:03.590Z,12.31
2022-09-02T01:48:03.518Z,12.31
2022-09-02T01:49:03.500Z,12.31
2022-09-02T01:50:03.534Z,12.31
2022-09-02T01:51:03.517Z,12.31
2022-09-02T01:52:03.507Z,12.31
2022-09-02T01:53:03.421Z,12.31
2022-09-02T01:54:03.584Z,12.31
2022-09-02T01:55:03.677Z,12.31
2022-09-02T01:56:03.585Z,12.31
2022-09-02T01:57:03.588Z,12.31
2022-09-02T01:58:03.602Z,12.31
2022-09-02T01:59:03.755Z,12.31
2022-09-02T02:00:03.665Z,12.31
2022-09-02T02:01:03.829Z,12.31
2022-09-02T02:02:03.958Z,12.31
2022-09-02T02:03:03.908Z,12.38
2022-09-02T02:04:03.913Z,12.38
2022-09-02T02:05:03.923Z,12.38
2022-09-02T02:06:03.910Z,12.38
2022-09-02T02:07:04.059Z,12.38
2022-09-02T02:08:04.158Z,12.38
2022-09-02T02:09:04.147Z,12.38
2022-09-02T02:10:04.100Z,12.38
2022-09-02T02:11:04.153Z,12.38
2022-09-02T02:12:04.152Z,12.38
2022-09-02T02:13:04.154Z,12.38
2022-09-02T02:14:04.227Z,12.38
2022-09-02T02:15:04.307Z,12.38
2022-09-02T02:16:04.459Z,12.38
2022-09-02T02:17:04.463Z,12.38
2022-09-02T02:18:04.468Z,12.38
2022-09-02T02:19:04.377Z,12.31
2022-09-02T02:20:03.518Z,12.31
2022-09-02T02:21:04.479Z,12.31
2022-09-02T02:22:03.585Z,12.31
2022-09-02T02:23:04.151Z,12.31
2022-09-02T02:24:04.222Z,12.31
2022-09-02T02:25:04.220Z,12.31
2022-09-02T02:26:04.239Z,12.31
2022-09-02T02:27:04.156Z,12.31
2022-09-02T02:28:04.241Z,12.31
2022-09-02T02:29:04.224Z,12.31
2022-09-02T02:30:04.215Z,12.25
2022-09-02T02:31:04.247Z,12.25
2022-09-02T02:32:04.307Z,12.25
2022-09-02T02:33:04.404Z,12.25
2022-09-02T02:34:04.379Z,12.25
2022-09-02T02:35:03.501Z,12.25
2022-09-02T02:36:03.509Z,12.19
2022-09-02T02:37:03.590Z,12.19
2022-09-02T02:38:04.008Z,12.19
2022-09-02T02:39:03.656Z,12.19
2022-09-02T02:40:03.746Z,12.19
2022-09-02T02:41:03.746Z,12.12
2022-09-02T02:42:03.740Z,12.12
2022-09-02T02:43:03.744Z,12.12
2022-09-02T02:44:03.833Z,12.12
2022-09-02T02:45:03.740Z,12.12
2022-09-02T02:46:03.898Z,12.06
2022-09-02T02:47:03.897Z,12.06
2022-09-02T02:48:03.989Z,12.06
2022-09-02T02:49:03.912Z,12.06
2022-09-02T02:50:03.900Z,12.00
2022-09-02T02:51:03.909Z,12.00
2022-09-02T02:52:03.907Z,12.00
2022-09-02T02:53:03.904Z,12.00
2022-09-02T02:54:03.995Z,11.94
2022-09-02T02:55:04.153Z,11.94
2022-09-02T02:56:03.980Z,11.94
2022-09-02T02:57:04.315Z,11.94
2022-09-02T02:58:04.386Z,11.88
2022-09-02T02:59:04.386Z,11.88
2022-09-02T03:00:04.381Z,11.88
2022-09-02T03:01:03.509Z,11.88
2022-09-02T03:02:03.606Z,11.81
2022-09-02T03:03:04.507Z,11.81
2022-09-02T03:04:04.466Z,11.81
2022-09-02T03:05:03.506Z,11.81
2022-09-02T03:06:03.592Z,11.81
2022-09-02T03:07:03.591Z,11.75
2022-09-02T03:08:03.528Z,11.75
2022-09-02T03:09:03.512Z,11.75
2022-09-02T03:10:03.663Z,11.69
2022-09-02T03:11:03.667Z,11.69
2022-09-02T03:12:03.665Z,11.69
2022-09-02T03:13:03.681Z,11.69
2022-09-02T03:14:03.667Z,11.62
2022-09-02T03:15:03.656Z,11.62
2022-09-02T03:16:03.894Z,11.62
2022-09-02T03:17:03.917Z,11.62
2022-09-02T03:18:04.067Z,11.62
2022-09-02T03:19:04.153Z,11.56
2022-09-02T03:20:04.229Z,11.56
2022-09-02T03:21:04.146Z,11.56
2022-09-02T03:22:04.222Z,11.50
2022-09-02T03:23:04.310Z,11.50
2022-09-02T03:24:04.303Z,11.50
2022-09-02T03:25:04.338Z,11.44
2022-09-02T03:26:04.320Z,11.44
2022-09-02T03:27:04.393Z,11.44
2022-09-02T03:28:04.477Z,11.44
2022-09-02T03:29:03.592Z,11.44
2022-09-02T03:30:03.591Z,11.44
2022-09-02T03:31:03.712Z,11.38
2022-09-02T03:32:03.851Z,11.38
2022-09-02T03:33:04.371Z,11.38
2022-09-02T03:34:03.744Z,11.31
2022-09-02T03:35:03.768Z,11.31
2022-09-02T03:36:03.750Z,11.31
2022-09-02T03:37:03.823Z,11.31
2022-09-02T03:38:03.839Z,11.31
2022-09-02T03:39:03.914Z,11.25
2022-09-02T03:40:03.824Z,11.25
2022-09-02T03:41:03.992Z,11.25
2022-09-02T03:42:05.653Z,11.19
2022-09-02T03:43:04.154Z,11.19
2022-09-02T03:44:04.145Z,11.19
2022-09-02T03:45:04.150Z,11.19
2022-09-02T03:46:04.339Z,11.12
2022-09-02T03:47:04.235Z,11.12
2022-09-02T03:48:04.400Z,11.12
2022-09-02T03:49:04.383Z,11.12
2022-09-02T03:50:04.382Z,11.06
2022-09-02T03:51:03.514Z,11.06
2022-09-02T03:52:03.829Z,11.06
2022-09-02T03:53:03.913Z,11.06
2022-09-02T03:54:04.001Z,11.06
2022-09-02T03:55:04.005Z,11.00
2022-09-02T03:56:04.002Z,11.00
2022-09-02T03:57:04.085Z,11.00
2022-09-02T03:58:07.918Z,11.00
2022-09-02T03:59:04.000Z,10.94
2022-09-02T04:00:04.066Z,10.94
2022-09-02T04:01:04.072Z,10.94
2022-09-02T04:02:04.245Z,10.94
2022-09-02T04:03:04.288Z,10.94
2022-09-02T04:04:04.229Z,10.88
2022-09-02T04:05:04.406Z,10.88
2022-09-02T04:06:04.472Z,10.88
2022-09-02T04:07:04.478Z,10.88
2022-09-02T04:08:04.384Z,10.88
2022-09-02T04:09:03.513Z,10.88
2022-09-02T04:10:03.505Z,10.88
2022-09-02T04:11:03.585Z,10.81
2022-09-02T04:12:03.667Z,10.81
2022-09-02T04:13:03.581Z,10.81
2022-09-02T04:14:03.667Z,10.81
2022-09-02T04:15:03.809Z,10.81
2022-09-02T04:16:03.964Z,10.75
2022-09-02T04:17:04.142Z,10.75
2022-09-02T04:18:04.068Z,10.75
2022-09-02T04:19:04.160Z,10.75
2022-09-02T04:20:04.157Z,10.75
2022-09-02T04:21:04.308Z,10.75
2022-09-02T04:22:04.256Z,10.69
2022-09-02T04:23:04.158Z,10.69
2022-09-02T04:24:04.313Z,10.69
2022-09-02T04:25:04.488Z,10.69
2022-09-02T04:26:03.994Z,10.69
2022-09-02T04:27:04.467Z,10.62
2022-09-02T04:28:04.160Z,10.62
2022-09-02T04:29:04.222Z,10.62
2022-09-02T04:30:04.313Z,10.62
2022-09-02T04:31:04.369Z,10.62
2022-09-02T04:32:04.482Z,10.62
2022-09-02T04:33:04.486Z,10.62
2022-09-02T04:34:04.002Z,10.62
2022-09-02T04:35:03.911Z,10.62
2022-09-02T04:36:04.904Z,10.56
2022-09-02T04:37:03.914Z,10.56
2022-09-02T04:38:03.981Z,10.56
2022-09-02T04:39:03.991Z,10.56
2022-09-02T04:40:03.942Z,10.56
2022-09-02T04:41:03.923Z,10.56
2022-09-02T04:42:03.982Z,10.56
2022-09-02T04:43:03.995Z,10.56
2022-09-02T04:44:04.073Z,10.56
2022-09-02T04:45:04.153Z,10.50
2022-09-02T04:46:04.287Z,10.50
2022-09-02T04:47:04.389Z,10.50
2022-09-02T04:48:04.482Z,10.56
2022-09-02T04:49:03.673Z,10.56
2022-09-02T04:50:03.506Z,10.50
2022-09-02T04:51:03.657Z,10.50
2022-09-02T04:52:03.659Z,10.50
2022-09-02T04:53:03.754Z,10.56
2022-09-02T04:54:03.739Z,10.56
2022-09-02T04:55:03.741Z,10.56
2022-09-02T04:56:03.904Z,10.56
2022-09-02T04:57:03.992Z,10.56
2022-09-02T04:58:03.993Z,10.56
2022-09-02T04:59:04.151Z,10.56
2022-09-02T05:00:04.227Z,10.56
2022-09-02T05:01:04.269Z,10.56
2022-09-02T05:02:04.450Z,10.62
2022-09-02T05:03:04.240Z,10.62
2022-09-02T05:04:04.160Z,10.62
2022-09-02T05:05:04.302Z,10.62
2022-09-02T05:06:04.320Z,10.69
2022-09-02T05:07:04.460Z,10.69
2022-09-02T05:08:03.592Z,10.69
2022-09-02T05:09:03.680Z,10.69
2022-09-02T05:10:03.666Z,10.75
2022-09-02T05:11:03.587Z,10.81
2022-09-02T05:12:03.748Z,10.94
2022-09-02T05:13:03.737Z,11.12
2022-09-02T05:14:04.075Z,11.38
2022-09-02T05:15:04.066Z,11.62
2022-09-02T05:16:04.141Z,12.12
2022-09-02T05:17:07.592Z,12.88
2022-09-02T05:18:04.333Z,13.69
2022-09-02T05:19:04.385Z,14.44
2022-09-02T05:20:04.402Z,15.12
2022-09-02T05:21:03.598Z,15.69
2022-09-02T05:22:03.596Z,16.25
2022-09-02T05:23:03.583Z,16.75
2022-09-02T05:24:03.587Z,17.19
2022-09-02T05:25:03.590Z,17.62
2022-09-02T05:26:03.586Z,18.06
2022-09-02T05:27:03.699Z,18.44
2022-09-02T05:28:03.764Z,18.81
2022-09-02T05:29:03.673Z,19.12
2022-09-02T05:30:03.828Z,19.50
2022-09-02T05:31:04.019Z,19.88
2022-09-02T05:32:04.064Z,20.19
2022-09-02T05:33:04.266Z,20.50
2022-09-02T05:34:04.236Z,20.88
2022-09-02T05:35:04.158Z,21.19
2022-09-02T05:36:04.316Z,21.50
2022-09-02T05:37:04.233Z,21.81
2022-09-02T05:38:04.219Z,22.12
2022-09-02T05:39:04.387Z,22.38
2022-09-02T05:40:04.488Z,22.69
2022-09-02T05:41:04.399Z,23.00
2022-09-02T05:42:04.568Z,23.31
2022-09-02T05:43:04.387Z,23.56
2022-09-02T05:44:03.841Z,23.81
2022-09-02T05:45:03.667Z,24.06
2022-09-02T05:46:03.780Z,24.25
2022-09-02T05:47:03.928Z,24.50
2022-09-02T05:48:03.829Z,24.62
2022-09-02T05:49:03.902Z,24.81
2022-09-02T05:50:03.903Z,24.94
2022-09-02T05:51:03.996Z,25.00
2022-09-02T05:52:04.088Z,25.12
2022-09-02T05:53:04.006Z,25.25
2022-09-02T05:54:03.995Z,25.38
2022-09-02T05:55:03.989Z,25.50
2022-09-02T05:56:04.154Z,25.62
2022-09-02T05:57:04.160Z,25.81
2022-09-02T05:58:04.234Z,25.88
2022-09-02T05:59:04.148Z,26.00
2022-09-02T06:00:04.245Z,26.19
2022-09-02T06:01:04.146Z,26.31
2022-09-02T06:02:04.346Z,26.44
2022-09-02T06:03:04.447Z,26.38
2022-09-02T06:04:03.983Z,26.25
2022-09-02T06:05:04.084Z,26.06
2022-09-02T06:06:06.681Z,25.88
2022-09-02T06:07:04.375Z,25.75
2022-09-02T06:08:04.305Z,25.56
2022-09-02T06:09:04.462Z,25.31
2022-09-02T06:10:03.509Z,25.12
2022-09-02T06:11:03.587Z,24.94
2022-09-02T06:12:03.663Z,24.62
2022-09-02T06:13:03.760Z,24.44
2022-09-02T06:14:04.237Z,24.19
2022-09-02T06:15:04.311Z,24.12
2022-09-02T06:16:04.382Z,24.06
2022-09-02T06:17:04.421Z,24.06
2022-09-02T06:18:03.509Z,24.06
2022-09-02T06:19:03.517Z,24.06
2022-09-02T06:20:03.529Z,24.12
2022-09-02T06:21:03.686Z,24.19
2022-09-02T06:22:03.670Z,24.25
2022-09-02T06:23:03.762Z,24.31
2022-09-02T06:24:03.778Z,24.44
2022-09-02T06:25:03.839Z,24.44
2022-09-02T06:26:03.988Z,24.50
2022-09-02T06:27:04.066Z,24.56
2022-09-02T06:28:06.977Z,24.69
2022-09-02T06:29:04.238Z,24.81
2022-09-02T06:30:04.254Z,24.94
2022-09-02T06:31:04.362Z,24.94
2022-09-02T06:32:04.338Z,25.00
2022-09-02T06:33:04.331Z,25.06
2022-09-02T06:34:03.573Z,25.12
2022-09-02T06:35:03.501Z,25.12
2022-09-02T06:36:03.583Z,25.19
2022-09-02T06:37:03.586Z,25.31
2022-09-02T06:38:03.756Z,25.38
2022-09-02T06:39:03.666Z,25.50
2022-09-02T06:40:03.837Z,25.56
2022-09-02T06:41:03.834Z,25.62
2022-09-02T06:42:03.954Z,25.75
2022-09-02T06:43:04.068Z,25.88
2022-09-02T06:44:04.000Z,25.94
2022-09-02T06:45:04.162Z,25.88
2022-09-02T06:46:04.125Z,25.69
2022-09-02T06:47:04.151Z,25.81
2022-09-02T06:48:05.631Z,25.81
2022-09-02T06:49:04.324Z,25.94
2022-09-02T06:50:04.320Z,26.06
2022-09-02T06:51:04.311Z,26.25
2022-09-02T06:52:04.470Z,26.31
2022-09-02T06:53:03.679Z,26.50
2022-09-02T06:54:03.669Z,26.62
2022-09-02T06:55:03.696Z,26.69
2022-09-02T06:56:03.885Z,26.69
2022-09-02T06:57:03.837Z,26.75
2022-09-02T06:58:03.914Z,26.88
2022-09-02T06:59:03.922Z,26.94
2022-09-02T07:00:03.991Z,27.06
2022-09-02T07:01:04.116Z,27.12
2022-09-02T07:02:04.301Z,27.25
2022-09-02T07:03:04.327Z,27.25
2022-09-02T07:04:04.317Z,27.25
2022-09-02T07:05:04.312Z,27.25
2022-09-02T07:06:04.393Z,27.19
2022-09-02T07:07:04.391Z,27.31
2022-09-02T07:08:04.470Z,27.44
2022-09-02T07:09:03.684Z,27.44
2022-09-02T07:10:03.593Z,27.56
2022-09-02T07:11:03.684Z,27.62
2022-09-02T07:12:05.240Z,27.75
2022-09-02T07:13:03.641Z,27.75
2022-09-02T07:14:03.700Z,27.62
2022-09-02T07:15:03.702Z,27.69
2022-09-02T07:16:03.836Z,27.75
2022-09-02T07:17:04.064Z,27.75
2022-09-02T07:18:03.910Z,27.75
2022-09-02T07:19:04.907Z,27.75
2022-09-02T07:20:04.071Z,27.88
2022-09-02T07:21:04.090Z,28.00
2022-09-02T07:22:04.252Z,28.00
2022-09-02T07:23:04.184Z,28.06
2022-09-02T07:24:04.229Z,28.06
2022-09-02T07:25:04.402Z,27.94
2022-09-02T07:26:04.238Z,27.75
2022-09-02T07:27:04.338Z,27.81
2022-09-02T07:28:04.485Z,27.88
2022-09-02T07:29:03.514Z,28.00
2022-09-02T07:30:03.676Z,27.94
2022-09-02T07:31:03.639Z,28.06
2022-09-02T07:32:03.715Z,28.19
2022-09-02T07:33:03.776Z,28.25
2022-09-02T07:34:03.754Z,28.06
2022-09-02T07:35:04.010Z,27.81
2022-09-02T07:36:04.253Z,27.81
2022-09-02T07:37:06.287Z,27.75
2022-09-02T07:38:04.355Z,27.81
2022-09-02T07:39:04.161Z,27.81
2022-09-02T07:40:04.446Z,27.81
2022-09-02T07:41:04.397Z,27.62
2022-09-02T07:42:04.400Z,27.50
2022-09-02T07:43:03.521Z,27.44
2022-09-02T07:44:03.597Z,27.38
2022-09-02T07:45:04.069Z,27.31
2022-09-02T07:46:04.255Z,27.50
2022-09-02T07:47:04.150Z,27.62
2022-09-02T07:48:04.183Z,27.81
2022-09-02T07:49:04.177Z,27.81
2022-09-02T07:50:20.915Z,27.81
2022-09-02T07:51:03.922Z,27.88
2022-09-02T07:52:04.077Z,27.81
2022-09-02T07:53:04.044Z,27.88
2022-09-02T07:54:04.162Z,27.88
2022-09-02T07:55:04.156Z,28.00
2022-09-02T07:56:04.233Z,27.75
2022-09-02T07:57:04.318Z,27.75
2022-09-02T07:58:04.323Z,27.50
2022-09-02T07:59:04.254Z,27.38
2022-09-02T08:00:04.321Z,27.19
2022-09-02T08:01:04.534Z,27.19
2022-09-02T08:02:04.526Z,27.25
2022-09-02T08:03:03.789Z,27.19
2022-09-02T08:04:05.568Z,27.19
2022-09-02T08:05:03.758Z,26.94
2022-09-02T08:06:03.918Z,26.81
2022-09-02T08:07:03.835Z,26.75
2022-09-02T08:08:03.837Z,26.62
2022-09-02T08:09:03.831Z,26.69
2022-09-02T08:10:03.834Z,26.62
2022-09-02T08:11:03.927Z,26.56
2022-09-02T08:12:03.913Z,26.56
2022-09-02T08:13:03.908Z,26.44
2022-09-02T08:14:04.025Z,26.25
2022-09-02T08:15:03.993Z,26.12
2022-09-02T08:16:04.064Z,26.06
2022-09-02T08:17:04.087Z,26.12
2022-09-02T08:18:04.159Z,26.19
2022-09-02T08:19:04.321Z,26.12
2022-09-02T08:20:04.312Z,26.06
2022-09-02T08:21:04.469Z,26.06
2022-09-02T08:22:04.478Z,25.88
2022-09-02T08:23:10.563Z,25.88
2022-09-02T08:24:03.616Z,25.81
2022-09-02T08:25:03.691Z,25.75
2022-09-02T08:26:03.686Z,25.69
2022-09-02T08:27:03.761Z,25.69
2022-09-02T08:28:03.759Z,25.75
2022-09-02T08:29:03.754Z,25.69
2022-09-02T08:30:03.840Z,25.56
2022-09-02T08:31:03.992Z,25.44
2022-09-02T08:32:04.123Z,25.31
2022-09-02T08:33:04.150Z,25.31
2022-09-02T08:34:04.155Z,25.31
2022-09-02T08:35:04.254Z,25.19
2022-09-02T08:36:04.247Z,25.12
2022-09-02T08:37:04.240Z,25.06
2022-09-02T08:38:04.417Z,25.00
2022-09-02T08:39:03.753Z,25.00
2022-09-02T08:40:03.840Z,25.00
2022-09-02T08:41:03.837Z,24.94
2022-09-02T08:42:03.882Z,24.88
2022-09-02T08:43:03.679Z,24.75
2022-09-02T08:44:03.689Z,24.69
2022-09-02T08:45:03.587Z,24.69
2022-09-02T08:46:03.849Z,24.62
2022-09-02T08:47:03.911Z,24.56
2022-09-02T08:48:03.844Z,24.56
2022-09-02T08:49:03.848Z,24.50
2022-09-02T08:50:03.932Z,24.50
2022-09-02T08:51:03.994Z,24.44
2022-09-02T08:52:04.069Z,24.38
2022-09-02T08:53:04.149Z,24.38
2022-09-02T08:54:04.255Z,24.38
2022-09-02T08:55:04.243Z,24.31
2022-09-02T08:56:04.479Z,24.38
2022-09-02T08:57:04.395Z,24.44
2022-09-02T08:58:07.394Z,24.38
2022-09-02T08:59:04.410Z,24.25
2022-09-02T09:00:03.594Z,24.12
2022-09-02T09:01:03.611Z,24.06
2022-09-02T09:02:03.755Z,23.88
2022-09-02T09:03:03.711Z,23.81
2022-09-02T09:04:03.664Z,23.75
2022-09-02T09:05:03.757Z,23.56
2022-09-02T09:06:03.995Z,23.62
2022-09-02T09:07:03.925Z,23.62
2022-09-02T09:08:04.076Z,23.62
2022-09-02T09:09:04.161Z,23.56
2022-09-02T09:10:04.407Z,23.50
2022-09-02T09:11:03.675Z,23.56
2022-09-02T09:12:03.672Z,23.62
2022-09-02T09:13:03.517Z,23.56
2022-09-02T09:14:03.750Z,23.50
2022-09-02T09:15:04.317Z,23.44
2022-09-02T09:16:04.546Z,23.44
2022-09-02T09:17:03.598Z,23.38
2022-09-02T09:18:03.778Z,23.31
2022-09-02T09:19:06.891Z,23.31
2022-09-02T09:20:03.756Z,23.31
2022-09-02T09:21:03.913Z,23.25
2022-09-02T09:22:03.853Z,23.25
2022-09-02T09:23:04.319Z,23.19
2022-09-02T09:24:04.323Z,23.06
2022-09-02T09:25:04.394Z,23.00
2022-09-02T09:26:03.526Z,22.94
2022-09-02T09:27:03.610Z,22.81
2022-09-02T09:28:03.697Z,22.69
2022-09-02T09:29:03.696Z,22.62
2022-09-02T09:30:03.767Z,22.50
2022-09-02T09:31:03.907Z,22.44
2022-09-02T09:32:03.916Z,22.31
2022-09-02T09:33:03.994Z,22.19
2022-09-02T09:34:04.073Z,22.06
2022-09-02T09:35:03.989Z,22.00
2022-09-02T09:36:04.015Z,22.00
2022-09-02T09:37:04.069Z,21.88
2022-09-02T09:38:04.161Z,21.75
2022-09-02T09:39:04.166Z,21.69
2022-09-02T09:40:04.068Z,21.69
2022-09-02T09:41:04.253Z,21.62
2022-09-02T09:42:04.393Z,21.69
2022-09-02T09:43:04.381Z,21.69
2022-09-02T09:44:03.594Z,21.69
2022-09-02T09:45:03.596Z,21.69
2022-09-02T09:46:03.638Z,21.56
2022-09-02T09:47:03.510Z,21.50
2022-09-02T09:48:03.517Z,21.44
2022-09-02T09:49:03.588Z,21.31
2022-09-02T09:50:03.826Z,21.31
2022-09-02T09:51:04.067Z,21.31
2022-09-02T09:52:04.150Z,21.31
2022-09-02T09:53:04.204Z,21.25
2022-09-02T09:54:04.144Z,21.25
2022-09-02T09:55:04.231Z,21.25
2022-09-02T09:56:04.318Z,21.19
2022-09-02T09:57:04.316Z,21.12
2022-09-02T09:58:04.394Z,21.12
2022-09-02T09:59:04.393Z,21.12
2022-09-02T10:00:03.587Z,21.19
2022-09-02T10:01:04.479Z,21.19
2022-09-02T10:02:03.594Z,21.12
2022-09-02T10:03:03.509Z,21.12
2022-09-02T10:04:03.823Z,21.06
2022-09-02T10:05:03.745Z,21.00
2022-09-02T10:06:03.743Z,21.00
2022-09-02T10:07:03.830Z,21.00
2022-09-02T10:08:03.744Z,20.94
2022-09-02T10:09:03.830Z,20.94
2022-09-02T10:10:03.822Z,21.00
2022-09-02T10:11:04.254Z,21.00
2022-09-02T10:12:04.236Z,21.00
2022-09-02T10:13:04.298Z,21.00
2022-09-02T10:14:04.478Z,21.00
2022-09-02T10:15:04.386Z,21.00
2022-09-02T10:16:03.648Z,21.00
2022-09-02T10:17:03.585Z,21.00
2022-09-02T10:18:03.746Z,21.00
2022-09-02T10:19:03.749Z,20.94
2022-09-02T10:20:04.605Z,20.94
2022-09-02T10:21:14.227Z,20.94
2022-09-02T10:22:03.903Z,20.94
2022-09-02T10:23:03.822Z,20.94
2022-09-02T10:24:03.905Z,20.88
2022-09-02T10:25:04.074Z,20.81
2022-09-02T10:26:04.151Z,20.75
2022-09-02T10:27:04.239Z,20.75
2022-09-02T10:28:04.469Z,20.75
2022-09-02T10:29:04.470Z,20.75
2022-09-02T10:30:03.745Z,20.75
2022-09-02T10:31:03.806Z,20.75
2022-09-02T10:32:03.749Z,20.69
2022-09-02T10:33:03.928Z,20.69
2022-09-02T10:34:03.912Z,20.69
2022-09-02T10:35:03.919Z,20.69
2022-09-02T10:36:03.982Z,20.75
2022-09-02T10:37:04.154Z,20.81
2022-09-02T10:38:04.379Z,20.81
2022-09-02T10:39:04.412Z,20.88
2022-09-02T10:40:03.516Z,20.94
2022-09-02T10:41:03.496Z,21.00
2022-09-02T10:42:03.506Z,21.00
2022-09-02T10:43:03.589Z,21.06
2022-09-02T10:44:03.743Z,21.12
2022-09-02T10:45:03.911Z,21.19
2022-09-02T10:46:04.065Z,21.25
2022-09-02T10:47:04.260Z,21.25
2022-09-02T10:48:04.385Z,21.25
2022-09-02T10:49:04.380Z,21.19
2022-09-02T10:50:04.460Z,21.12
2022-09-02T10:51:03.843Z,21.12
2022-09-02T10:52:03.906Z,21.12
2022-09-02T10:53:04.734Z,21.19
2022-09-02T10:54:03.914Z,21.19
2022-09-02T10:55:03.966Z,21.19
2022-09-02T10:56:04.081Z,21.25
2022-09-02T10:57:04.072Z,21.25
2022-09-02T10:58:04.073Z,21.31
2022-09-02T10:59:04.138Z,21.31
2022-09-02T11:00:04.146Z,21.38
2022-09-02T11:01:04.420Z,21.31
2022-09-02T11:02:04.386Z,21.31
2022-09-02T11:03:04.422Z,21.31
2022-09-02T11:04:04.483Z,21.38
2022-09-02T11:05:04.382Z,21.44
2022-09-02T11:06:03.539Z,21.44
2022-09-02T11:07:03.840Z,21.38
2022-09-02T11:08:03.585Z,21.38
2022-09-02T11:09:03.585Z,21.38
2022-09-02T11:10:03.769Z,21.31
2022-09-02T11:11:03.747Z,21.31
2022-09-02T11:12:04.789Z,21.38
2022-09-02T11:13:03.920Z,21.38
2022-09-02T11:14:03.914Z,21.44
2022-09-02T11:15:03.991Z,21.50
2022-09-02T11:16:04.021Z,21.56
2022-09-02T11:17:03.999Z,21.62
2022-09-02T11:18:04.213Z,21.69
2022-09-02T11:19:04.217Z,21.75
2022-09-02T11:20:04.301Z,21.81
2022-09-02T11:21:04.386Z,21.81
2022-09-02T11:22:04.219Z,21.81
2022-09-02T11:23:04.330Z,21.81
2022-09-02T11:24:04.490Z,21.81
2022-09-02T11:25:04.417Z,21.81
2022-09-02T11:26:03.514Z,21.88
2022-09-02T11:27:04.391Z,21.88
2022-09-02T11:28:03.665Z,21.88
2022-09-02T11:29:03.674Z,21.81
2022-09-02T11:30:03.677Z,21.75
2022-09-02T11:31:03.589Z,21.75
2022-09-02T11:32:03.826Z,21.75
2022-09-02T11:33:03.840Z,21.81
2022-09-02T11:35:03.821Z,21.69
2022-09-02T11:36:03.757Z,21.62
2022-09-02T11:37:03.820Z,21.56
2022-09-02T11:38:03.988Z,21.56
2022-09-02T11:39:04.085Z,21.56
2022-09-02T11:40:17.535Z,21.56
2022-09-02T11:41:35.732Z,21.62
2022-09-02T11:42:04.442Z,21.62
2022-09-02T11:43:03.518Z,21.75
2022-09-02T11:44:03.701Z,21.75
2022-09-02T11:45:03.667Z,21.75
2022-09-02T11:46:03.797Z,21.81
2022-09-02T11:47:03.939Z,21.75
2022-09-02T11:48:03.833Z,21.75
2022-09-02T11:49:03.931Z,21.75
2022-09-02T11:50:04.085Z,21.81
2022-09-02T11:51:04.233Z,21.81
2022-09-02T11:52:04.263Z,21.81
2022-09-02T11:53:04.315Z,21.88
2022-09-02T11:54:04.745Z,21.81
2022-09-02T11:55:04.307Z,21.81
2022-09-02T11:56:03.589Z,21.88
2022-09-02T11:57:03.594Z,21.94
2022-09-02T11:58:03.509Z,22.00
2022-09-02T11:59:03.790Z,22.06
2022-09-02T12:00:03.775Z,22.12
2022-09-02T12:01:03.743Z,22.19
2022-09-02T12:02:03.759Z,22.25
2022-09-02T12:03:11.782Z,22.31
2022-09-02T12:05:04.589Z,22.38
2022-09-02T12:06:04.184Z,22.44
2022-09-02T12:07:07.790Z,22.44
2022-09-02T12:08:04.326Z,22.50
2022-09-02T12:09:04.389Z,22.44
2022-09-02T12:10:03.513Z,22.44
2022-09-02T12:11:03.681Z,22.44
2022-09-02T12:12:03.668Z,22.38
2022-09-02T12:13:03.763Z,22.38
2022-09-02T12:14:04.599Z,22.38
2022-09-02T12:15:03.901Z,22.44
2022-09-02T12:16:03.834Z,22.38
2022-09-02T12:17:03.888Z,22.38
2022-09-02T12:18:03.908Z,22.38
2022-09-02T12:19:03.901Z,22.38
2022-09-02T12:20:03.929Z,22.38
2022-09-02T12:21:03.821Z,22.38
2022-09-02T12:22:03.943Z,22.31
2022-09-02T12:23:04.055Z,22.25
2022-09-02T12:24:03.993Z,22.25
2022-09-02T12:25:04.163Z,22.19
2022-09-02T12:26:04.140Z,22.19
2022-09-02T12:27:04.225Z,22.19
2022-09-02T12:28:04.293Z,22.19
2022-09-02T12:29:04.307Z,22.25
2022-09-02T12:30:04.419Z,22.25
2022-09-02T12:31:04.353Z,22.25
2022-09-02T12:32:04.322Z,22.19
2022-09-02T12:33:04.307Z,22.19
2022-09-02T12:34:04.384Z,22.19
2022-09-02T12:35:04.295Z,22.19
2022-09-02T12:36:03.519Z,22.19
2022-09-02T12:37:03.685Z,22.19
2022-09-02T12:38:03.582Z,22.19
2022-09-02T12:39:06.827Z,22.19
2022-09-02T12:40:03.827Z,22.19
2022-09-02T12:41:03.902Z,22.12
2022-09-02T12:42:03.909Z,22.19
2022-09-02T12:43:03.907Z,22.19
2022-09-02T12:44:03.905Z,22.19
2022-09-02T12:45:04.681Z,22.19
2022-09-02T12:46:03.975Z,22.19
2022-09-02T12:47:03.916Z,22.25
2022-09-02T12:48:03.989Z,22.25
2022-09-02T12:49:03.980Z,22.25
2022-09-02T12:50:04.361Z,22.19
2022-09-02T12:51:03.989Z,22.06
2022-09-02T12:52:03.981Z,22.00
2022-09-02T12:53:04.061Z,22.00
2022-09-02T12:54:04.221Z,22.00